createdAt,value
2023-02-22T00:00:01.105Z,0
2023-02-22T00:01:01.108Z,0
2023-02-22T00:02:01.150Z,0.11944444444444444
2023-02-22T00:03:01.279Z,0.31666666666666665
2023-02-22T00:04:01.159Z,0.15833333333333333
2023-02-22T00:05:01.449Z,0.225
2023-02-22T00:06:01.171Z,0.19999999999999998
2023-02-22T00:07:01.148Z,0.08055555555555555
2023-02-22T00:08:01.175Z,0
2023-02-22T00:09:01.181Z,0.03888888888888889
2023-02-22T00:10:01.594Z,0.11944444444444444
2023-02-22T00:11:00.972Z,0.23888888888888887
2023-02-22T00:12:00.796Z,0.19999999999999998
2023-02-22T00:13:00.804Z,0
2023-02-22T00:14:00.576Z,0
2023-02-22T00:15:00.265Z,0
2023-02-22T00:16:00.010Z,0
2023-02-22T00:17:00.068Z,0.19999999999999998
2023-02-22T00:17:59.781Z,0
2023-02-22T00:19:01.415Z,0
2023-02-22T00:20:02.459Z,0
2023-02-22T00:21:01.142Z,0
2023-02-22T00:22:01.149Z,0
2023-02-22T00:23:01.157Z,0
2023-02-22T00:24:01.161Z,0
2023-02-22T00:25:01.152Z,0.08055555555555555
2023-02-22T00:26:01.554Z,0.03888888888888889
2023-02-22T00:27:01.741Z,0.19999999999999998
2023-02-22T00:28:01.757Z,0
2023-02-22T00:29:01.747Z,0
2023-02-22T00:30:02.221Z,0.08055555555555555
2023-02-22T00:31:01.493Z,0.03888888888888889
2023-02-22T00:32:01.197Z,0.08055555555555555
2023-02-22T00:33:01.126Z,0.19999999999999998
2023-02-22T00:34:01.801Z,0
2023-02-22T00:35:01.285Z,0.2777777777777778
2023-02-22T00:36:01.123Z,0.03888888888888889
2023-02-22T00:37:01.130Z,0
2023-02-22T00:38:01.160Z,0
2023-02-22T00:39:01.161Z,0.35833333333333334
2023-02-22T00:40:01.057Z,0.23888888888888887
2023-02-22T00:41:01.156Z,0.08055555555555555
2023-02-22T00:42:01.382Z,0
2023-02-22T00:43:01.396Z,0
2023-02-22T00:44:01.401Z,0
2023-02-22T00:45:01.212Z,0
2023-02-22T00:46:01.164Z,0
2023-02-22T00:47:01.067Z,0
2023-02-22T00:48:01.086Z,0
2023-02-22T00:49:01.056Z,0
2023-02-22T00:50:01.112Z,0
2023-02-22T00:51:01.521Z,0
2023-02-22T00:52:01.240Z,0
2023-02-22T00:53:01.261Z,0
2023-02-22T00:54:02.415Z,0
2023-02-22T00:55:02.063Z,0
2023-02-22T00:56:01.164Z,0
2023-02-22T00:57:01.154Z,0
2023-02-22T00:58:01.269Z,0
2023-02-22T00:59:01.837Z,0
2023-02-22T01:00:01.341Z,0
2023-02-22T01:01:02.060Z,0
2023-02-22T01:02:01.141Z,0
2023-02-22T01:03:01.122Z,0
2023-02-22T01:04:01.242Z,0
2023-02-22T01:05:01.789Z,0
2023-02-22T01:06:03.558Z,0
2023-02-22T01:07:01.110Z,0
2023-02-22T01:08:01.148Z,0
2023-02-22T01:09:01.348Z,0
2023-02-22T01:10:01.369Z,0
2023-02-22T01:11:06.877Z,0
2023-02-22T01:12:01.190Z,0
2023-02-22T01:13:01.351Z,0
2023-02-22T01:14:01.155Z,0
2023-02-22T01:15:01.081Z,0
2023-02-22T01:16:09.133Z,0
2023-02-22T01:17:01.137Z,0
2023-02-22T01:18:01.482Z,0
2023-02-22T01:19:01.484Z,0
2023-02-22T01:20:01.199Z,0
2023-02-22T01:21:12.809Z,0
2023-02-22T01:22:01.807Z,0
2023-02-22T01:23:01.801Z,0
2023-02-22T01:24:02.930Z,0
2023-02-22T01:25:01.524Z,0
2023-02-22T01:26:14.255Z,0
2023-02-22T01:27:02.015Z,0
2023-02-22T01:28:01.134Z,0
2023-02-22T01:29:01.048Z,0
2023-02-22T01:30:01.174Z,0
2023-02-22T01:31:17.108Z,0
2023-02-22T01:32:01.978Z,0
2023-02-22T01:33:01.136Z,0
2023-02-22T01:34:01.072Z,0
2023-02-22T01:35:01.084Z,0
2023-02-22T01:36:01.101Z,0
2023-02-22T01:37:01.101Z,0
2023-02-22T01:38:01.439Z,0
2023-02-22T01:39:01.487Z,0
2023-02-22T01:40:02.232Z,0
2023-02-22T01:41:01.144Z,0
2023-02-22T01:42:01.130Z,0
2023-02-22T01:43:01.154Z,0
2023-02-22T01:44:01.166Z,0
2023-02-22T01:45:01.148Z,0
2023-02-22T01:46:01.240Z,0
2023-02-22T01:47:01.150Z,0
2023-02-22T01:48:01.673Z,0
2023-02-22T01:49:01.073Z,0
2023-02-22T01:50:01.418Z,0
2023-02-22T01:51:01.096Z,0
2023-02-22T01:52:01.199Z,0
2023-02-22T01:53:01.092Z,0
2023-02-22T01:54:01.106Z,0
2023-02-22T01:55:01.100Z,0
2023-02-22T01:56:01.116Z,0
2023-02-22T01:57:01.502Z,0.03888888888888889
2023-02-22T01:58:01.144Z,0
2023-02-22T01:59:01.837Z,0
2023-02-22T02:00:03.892Z,0
2023-02-22T02:01:01.513Z,0
2023-02-22T02:02:01.153Z,0
2023-02-22T02:03:01.160Z,0
2023-02-22T02:04:01.952Z,0
2023-02-22T02:05:02.068Z,0
2023-02-22T02:06:02.076Z,0
2023-02-22T02:07:01.090Z,0
2023-02-22T02:08:01.771Z,0
2023-02-22T02:09:01.095Z,0
2023-02-22T02:10:01.135Z,0
2023-02-22T02:11:01.121Z,0
2023-02-22T02:12:01.222Z,0
2023-02-22T02:13:01.950Z,0
2023-02-22T02:14:02.161Z,0
2023-02-22T02:15:01.253Z,0
2023-02-22T02:16:02.062Z,0
2023-02-22T02:17:02.578Z,0
2023-02-22T02:18:01.770Z,0
2023-02-22T02:19:01.378Z,0
2023-02-22T02:20:01.063Z,0
2023-02-22T02:21:01.785Z,0
2023-02-22T02:22:01.415Z,0
2023-02-22T02:23:01.447Z,0
2023-02-22T02:24:02.196Z,0
2023-02-22T02:25:02.178Z,0
2023-02-22T02:26:01.117Z,0
2023-02-22T02:27:01.548Z,0
2023-02-22T02:28:01.125Z,0
2023-02-22T02:29:01.118Z,0
2023-02-22T02:30:01.140Z,0
2023-02-22T02:31:01.182Z,0
2023-02-22T02:32:01.690Z,0
2023-02-22T02:33:01.275Z,0
2023-02-22T02:34:01.154Z,0
2023-02-22T02:35:01.164Z,0
2023-02-22T02:36:01.251Z,0
2023-02-22T02:37:01.625Z,0
2023-02-22T02:38:01.833Z,0
2023-02-22T02:39:01.789Z,0
2023-02-22T02:40:02.686Z,0
2023-02-22T02:41:01.821Z,0
2023-02-22T02:42:03.964Z,0
2023-02-22T02:43:02.470Z,0
2023-02-22T02:44:01.122Z,0
2023-02-22T02:45:01.045Z,0
2023-02-22T02:46:01.051Z,0
2023-02-22T02:47:01.185Z,0
2023-02-22T02:48:01.151Z,0
2023-02-22T02:49:01.792Z,0
2023-02-22T02:50:02.527Z,0
2023-02-22T02:51:01.442Z,0
2023-02-22T02:52:01.249Z,0
2023-02-22T02:53:01.972Z,0
2023-02-22T02:54:02.608Z,0
2023-02-22T02:55:01.082Z,0
2023-02-22T02:56:01.118Z,0
2023-02-22T02:57:04.682Z,0
2023-02-22T02:58:01.106Z,0
2023-02-22T02:59:01.123Z,0
2023-02-22T03:00:01.117Z,0
2023-02-22T03:01:01.120Z,0
2023-02-22T03:02:07.043Z,0
2023-02-22T03:03:01.139Z,0
2023-02-22T03:04:01.153Z,0
2023-02-22T03:05:01.136Z,0
2023-02-22T03:06:01.146Z,0
2023-02-22T03:07:10.252Z,0
2023-02-22T03:08:01.159Z,0
2023-02-22T03:09:01.872Z,0
2023-02-22T03:10:02.130Z,0
2023-02-22T03:11:01.198Z,0
2023-02-22T03:12:13.945Z,0
2023-02-22T03:13:04.749Z,0
2023-02-22T03:14:01.158Z,0
2023-02-22T03:15:01.860Z,0
2023-02-22T03:16:01.785Z,0
2023-02-22T03:17:15.989Z,0
2023-02-22T03:18:01.504Z,0
2023-02-22T03:19:01.134Z,0
2023-02-22T03:20:01.207Z,0
2023-02-22T03:21:01.141Z,0
2023-02-22T03:22:01.145Z,0
2023-02-22T03:23:01.481Z,0
2023-02-22T03:24:01.190Z,0
2023-02-22T03:25:01.197Z,0
2023-02-22T03:26:01.208Z,0
2023-02-22T03:27:01.212Z,0
2023-02-22T03:28:04.269Z,0
2023-02-22T03:29:01.907Z,0
2023-02-22T03:30:01.985Z,0
2023-02-22T03:31:01.139Z,0
2023-02-22T03:32:01.645Z,0
2023-02-22T03:33:01.122Z,0
2023-02-22T03:34:01.461Z,0.19722222222222222
2023-02-22T03:35:01.184Z,0.23888888888888887
2023-02-22T03:36:01.158Z,0.2777777777777778
2023-02-22T03:37:01.150Z,0.19999999999999998
2023-02-22T03:38:01.147Z,0.19999999999999998
2023-02-22T03:39:01.154Z,0.15833333333333333
2023-02-22T03:40:01.158Z,0
2023-02-22T03:41:01.172Z,0
2023-02-22T03:42:01.063Z,0
2023-02-22T03:43:01.079Z,0
2023-02-22T03:44:01.336Z,0
2023-02-22T03:45:01.417Z,0
2023-02-22T03:46:02.194Z,0
2023-02-22T03:47:01.069Z,0
2023-02-22T03:48:01.121Z,0
2023-02-22T03:49:01.133Z,0
2023-02-22T03:50:01.160Z,0
2023-02-22T03:51:01.156Z,0
2023-02-22T03:52:01.142Z,0
2023-02-22T03:53:01.530Z,0
2023-02-22T03:54:01.153Z,0
2023-02-22T03:55:01.154Z,0
2023-02-22T03:56:01.187Z,0
2023-02-22T03:57:01.234Z,0
2023-02-22T03:58:01.193Z,0.03888888888888889
2023-02-22T03:59:01.143Z,0
2023-02-22T04:00:01.118Z,0
2023-02-22T04:01:01.078Z,0
2023-02-22T04:02:01.075Z,0
2023-02-22T04:03:01.187Z,0.11944444444444444
2023-02-22T04:04:01.051Z,0
2023-02-22T04:05:01.990Z,0
2023-02-22T04:06:01.805Z,0
2023-02-22T04:07:01.125Z,0
2023-02-22T04:08:01.128Z,0
2023-02-22T04:09:01.147Z,0
2023-02-22T04:10:02.065Z,0
2023-02-22T04:11:00.890Z,0
2023-02-22T04:12:00.638Z,0
2023-02-22T04:13:00.359Z,0
2023-02-22T04:14:00.287Z,0
2023-02-22T04:14:59.939Z,0
2023-02-22T04:15:59.843Z,0
2023-02-22T04:16:59.637Z,0
2023-02-22T04:18:01.762Z,0
2023-02-22T04:19:02.425Z,0
2023-02-22T04:20:01.418Z,0
2023-02-22T04:21:02.120Z,0
2023-02-22T04:22:01.263Z,0.19999999999999998
2023-02-22T04:23:01.124Z,0.19722222222222222
2023-02-22T04:24:01.149Z,0.11944444444444444
2023-02-22T04:25:01.059Z,0.07222222222222223
2023-02-22T04:26:01.140Z,0
2023-02-22T04:27:01.178Z,0.08055555555555555
2023-02-22T04:28:01.463Z,0
2023-02-22T04:29:01.246Z,0
2023-02-22T04:30:00.837Z,0
2023-02-22T04:31:01.500Z,0
2023-02-22T04:32:02.190Z,0
2023-02-22T04:33:02.656Z,0
2023-02-22T04:34:01.910Z,0
2023-02-22T04:35:01.687Z,0
2023-02-22T04:36:01.124Z,0
2023-02-22T04:37:01.055Z,0
2023-02-22T04:38:01.112Z,0.019444444444444445
2023-02-22T04:39:01.145Z,0
2023-02-22T04:40:01.144Z,0
2023-02-22T04:41:01.161Z,0
2023-02-22T04:42:01.432Z,0
2023-02-22T04:43:07.760Z,0.011111111111111112
2023-02-22T04:44:02.882Z,0
2023-02-22T04:45:01.372Z,0
2023-02-22T04:46:02.613Z,0
2023-02-22T04:47:01.464Z,0
2023-02-22T04:48:10.522Z,0
2023-02-22T04:49:02.688Z,0
2023-02-22T04:50:02.296Z,0
2023-02-22T04:51:01.862Z,0
2023-02-22T04:52:01.831Z,0
2023-02-22T04:53:14.290Z,0.2833333333333333
2023-02-22T04:54:01.213Z,0.08055555555555555
2023-02-22T04:55:01.179Z,0
2023-02-22T04:56:01.314Z,0
2023-02-22T04:57:01.519Z,0.036111111111111115
2023-02-22T04:58:16.791Z,0.03888888888888889
2023-02-22T04:59:01.152Z,0
2023-02-22T05:00:01.189Z,0
2023-02-22T05:01:01.198Z,0
2023-02-22T05:02:01.061Z,0
2023-02-22T05:03:01.163Z,0
2023-02-22T05:04:01.079Z,0
2023-02-22T05:05:01.121Z,0
2023-02-22T05:06:01.107Z,0
2023-02-22T05:07:01.589Z,0
2023-02-22T05:08:01.123Z,0
2023-02-22T05:09:01.142Z,0
2023-02-22T05:10:01.121Z,0
2023-02-22T05:11:01.138Z,0
2023-02-22T05:12:01.134Z,0
2023-02-22T05:13:02.694Z,0
2023-02-22T05:14:01.664Z,0
2023-02-22T05:15:01.074Z,0
2023-02-22T05:16:01.209Z,0
2023-02-22T05:17:01.167Z,0
2023-02-22T05:18:01.060Z,0
2023-02-22T05:19:01.174Z,0
2023-02-22T05:20:01.180Z,0.15833333333333333
2023-02-22T05:21:01.466Z,0
2023-02-22T05:22:01.084Z,0
2023-02-22T05:23:01.095Z,0
2023-02-22T05:24:01.134Z,0
2023-02-22T05:25:01.095Z,0
2023-02-22T05:26:01.115Z,0
2023-02-22T05:27:03.899Z,0
2023-02-22T05:28:01.126Z,0
2023-02-22T05:29:01.139Z,0
2023-02-22T05:30:01.554Z,0
2023-02-22T05:31:01.193Z,0
2023-02-22T05:32:00.078Z,0
2023-02-22T05:32:59.814Z,0
2023-02-22T05:34:02.693Z,0
2023-02-22T05:35:02.980Z,0
2023-02-22T05:36:01.779Z,0
2023-02-22T05:37:01.079Z,0
2023-02-22T05:38:01.396Z,0
2023-02-22T05:39:01.117Z,0
2023-02-22T05:40:01.111Z,0
2023-02-22T05:41:01.121Z,0
2023-02-22T05:42:01.126Z,0
2023-02-22T05:43:01.456Z,0
2023-02-22T05:44:01.791Z,0
2023-02-22T05:45:01.127Z,0
2023-02-22T05:46:01.281Z,0
2023-02-22T05:47:02.629Z,0
2023-02-22T05:48:01.160Z,0
2023-02-22T05:49:01.431Z,0
2023-02-22T05:50:00.774Z,0.11944444444444444
2023-02-22T05:51:00.477Z,0
2023-02-22T05:52:00.058Z,0
2023-02-22T05:52:59.755Z,0
2023-02-22T05:54:02.545Z,0
2023-02-22T05:55:01.519Z,0
2023-02-22T05:56:01.817Z,0
2023-02-22T05:57:01.354Z,0
2023-02-22T05:58:01.124Z,0
2023-02-22T05:59:01.456Z,0
2023-02-22T06:00:01.079Z,0
2023-02-22T06:01:15.079Z,0
2023-02-22T06:02:00.611Z,0
2023-02-22T06:03:00.316Z,0
2023-02-22T06:03:59.870Z,0
2023-02-22T06:05:02.877Z,0
2023-02-22T06:06:02.485Z,0
2023-02-22T06:07:01.066Z,0
2023-02-22T06:08:01.080Z,0
2023-02-22T06:09:01.113Z,0
2023-02-22T06:10:01.259Z,0
2023-02-22T06:11:01.089Z,0
2023-02-22T06:12:01.474Z,0
2023-02-22T06:13:01.099Z,0
2023-02-22T06:14:01.110Z,0
2023-02-22T06:15:01.122Z,0
2023-02-22T06:16:01.826Z,0
2023-02-22T06:17:01.984Z,0
2023-02-22T06:18:01.133Z,0
2023-02-22T06:19:00.888Z,0
2023-02-22T06:20:00.595Z,0
2023-02-22T06:21:00.229Z,0
2023-02-22T06:21:59.824Z,0
2023-02-22T06:23:01.886Z,0
2023-02-22T06:24:04.053Z,0.26944444444444443
2023-02-22T06:25:01.680Z,0.23888888888888887
2023-02-22T06:26:01.271Z,0
2023-02-22T06:27:01.911Z,0
2023-02-22T06:28:01.979Z,0
2023-02-22T06:29:06.318Z,0
2023-02-22T06:30:01.339Z,0
2023-02-22T06:31:02.345Z,0
2023-02-22T06:32:01.236Z,0
2023-02-22T06:33:01.121Z,0
2023-02-22T06:34:09.386Z,0
2023-02-22T06:35:01.143Z,0
2023-02-22T06:36:01.472Z,0
2023-02-22T06:37:02.255Z,0
2023-02-22T06:38:01.106Z,0
2023-02-22T06:39:13.893Z,0
2023-02-22T06:40:04.826Z,0
2023-02-22T06:41:01.092Z,0
2023-02-22T06:42:01.085Z,0
2023-02-22T06:43:01.104Z,0.2777777777777778
2023-02-22T06:44:16.790Z,0.049999999999999996
2023-02-22T06:45:00.815Z,0.23888888888888887
2023-02-22T06:46:00.544Z,0
2023-02-22T06:47:00.204Z,0
2023-02-22T06:47:59.768Z,0
2023-02-22T06:49:01.592Z,0
2023-02-22T06:50:01.135Z,0
2023-02-22T06:51:01.131Z,0
2023-02-22T06:52:01.133Z,0
2023-02-22T06:53:01.484Z,0
2023-02-22T06:54:01.504Z,0
2023-02-22T06:55:02.913Z,0
2023-02-22T06:56:01.081Z,0
2023-02-22T06:57:01.099Z,0
2023-02-22T06:58:01.085Z,0
2023-02-22T06:59:02.710Z,0
2023-02-22T07:00:01.147Z,0
2023-02-22T07:01:01.575Z,0
2023-02-22T07:02:02.168Z,0
2023-02-22T07:03:01.181Z,0
2023-02-22T07:04:01.116Z,0
2023-02-22T07:05:00.827Z,0
2023-02-22T07:06:01.128Z,0
2023-02-22T07:07:01.140Z,0
2023-02-22T07:08:01.161Z,0
2023-02-22T07:09:01.060Z,0
2023-02-22T07:10:01.485Z,0
2023-02-22T07:11:01.189Z,0
2023-02-22T07:12:01.076Z,0
2023-02-22T07:13:01.086Z,0
2023-02-22T07:14:01.127Z,0
2023-02-22T07:15:01.103Z,0
2023-02-22T07:16:01.860Z,0
2023-02-22T07:17:01.403Z,0
2023-02-22T07:18:01.344Z,0
2023-02-22T07:19:01.355Z,0
2023-02-22T07:20:01.164Z,0
2023-02-22T07:21:02.670Z,0
2023-02-22T07:22:04.754Z,0
2023-02-22T07:23:01.435Z,0.08055555555555555
2023-02-22T07:24:04.528Z,0
2023-02-22T07:25:01.784Z,0
2023-02-22T07:26:01.455Z,0
2023-02-22T07:27:01.174Z,0
2023-02-22T07:28:01.300Z,0
2023-02-22T07:29:01.134Z,0
2023-02-22T07:30:00.564Z,0
2023-02-22T07:31:00.263Z,0
2023-02-22T07:32:00.008Z,0
2023-02-22T07:32:59.824Z,0
2023-02-22T07:34:01.945Z,0
2023-02-22T07:35:02.110Z,0
2023-02-22T07:36:01.164Z,0
2023-02-22T07:37:01.115Z,0
2023-02-22T07:38:01.131Z,0
2023-02-22T07:39:01.146Z,0
2023-02-22T07:40:01.543Z,0.07777777777777778
2023-02-22T07:41:01.110Z,0
2023-02-22T07:42:01.522Z,0
2023-02-22T07:43:01.300Z,0
2023-02-22T07:44:01.314Z,0
2023-02-22T07:45:02.181Z,0
2023-02-22T07:46:01.159Z,0
2023-02-22T07:47:01.353Z,0
2023-02-22T07:48:01.393Z,0
2023-02-22T07:49:01.567Z,0
2023-02-22T07:50:00.633Z,0
2023-02-22T07:51:00.201Z,0
2023-02-22T07:51:59.874Z,0
2023-02-22T07:52:59.498Z,0
2023-02-22T07:54:01.166Z,0
2023-02-22T07:55:02.154Z,0
2023-02-22T07:56:01.607Z,0
2023-02-22T07:57:01.575Z,0.11666666666666665
2023-02-22T07:58:01.569Z,0
2023-02-22T07:59:01.697Z,0
2023-02-22T08:00:01.170Z,0
2023-02-22T08:01:02.656Z,0
2023-02-22T08:02:02.109Z,0
2023-02-22T08:03:01.793Z,0
2023-02-22T08:04:01.092Z,0
2023-02-22T08:05:01.704Z,0
2023-02-22T08:06:01.418Z,0
2023-02-22T08:07:02.041Z,0
2023-02-22T08:08:01.194Z,0
2023-02-22T08:09:01.128Z,0
2023-02-22T08:10:05.052Z,0
2023-02-22T08:11:01.161Z,0
2023-02-22T08:12:01.419Z,0
2023-02-22T08:13:01.446Z,0
2023-02-22T08:14:01.535Z,0
2023-02-22T08:15:07.700Z,0
2023-02-22T08:16:01.238Z,0
2023-02-22T08:17:01.025Z,0
2023-02-22T08:18:01.313Z,0
2023-02-22T08:19:01.522Z,0
2023-02-22T08:20:10.520Z,0
2023-02-22T08:21:01.247Z,0
2023-02-22T08:22:00.697Z,0
2023-02-22T08:23:00.426Z,0
2023-02-22T08:24:00.215Z,0
2023-02-22T08:25:12.558Z,0
2023-02-22T08:26:01.121Z,0
2023-02-22T08:27:01.207Z,0
2023-02-22T08:28:01.235Z,0
2023-02-22T08:29:01.138Z,0
2023-02-22T08:30:14.931Z,0
2023-02-22T08:31:01.231Z,0
2023-02-22T08:32:01.329Z,0
2023-02-22T08:33:01.407Z,0
2023-02-22T08:34:01.285Z,0.03888888888888889
2023-02-22T08:35:17.185Z,0
2023-02-22T08:36:02.147Z,0
2023-02-22T08:37:01.119Z,0
2023-02-22T08:38:01.106Z,0
2023-02-22T08:39:01.184Z,0
2023-02-22T08:40:01.131Z,0.03888888888888889
2023-02-22T08:41:01.146Z,0
2023-02-22T08:42:01.163Z,0
2023-02-22T08:43:01.157Z,0
2023-02-22T08:44:01.156Z,0
2023-02-22T08:45:01.167Z,0
2023-02-22T08:46:01.615Z,0
2023-02-22T08:47:01.263Z,0
2023-02-22T08:48:02.649Z,0
2023-02-22T08:49:02.133Z,0
2023-02-22T08:50:01.322Z,0.35833333333333334
2023-02-22T08:51:01.088Z,0
2023-02-22T08:52:01.075Z,0
2023-02-22T08:53:01.213Z,0
2023-02-22T08:54:01.101Z,0
2023-02-22T08:55:01.113Z,0.3972222222222222
2023-02-22T08:56:01.193Z,0
2023-02-22T08:57:01.593Z,0.23888888888888887
2023-02-22T08:58:01.253Z,0.47777777777777775
2023-02-22T08:59:01.156Z,0
2023-02-22T09:00:01.372Z,0
2023-02-22T09:01:01.171Z,0
2023-02-22T09:02:01.212Z,0.11944444444444444
2023-02-22T09:03:01.240Z,0
2023-02-22T09:04:01.275Z,0
2023-02-22T09:05:00.959Z,0
2023-02-22T09:06:01.093Z,0.47777777777777775
2023-02-22T09:07:01.070Z,0.6361111111111111
2023-02-22T09:08:01.092Z,0.08055555555555555
2023-02-22T09:09:01.095Z,0
2023-02-22T09:10:01.109Z,0.08055555555555555
2023-02-22T09:11:01.503Z,0.03888888888888889
2023-02-22T09:12:01.530Z,0.03888888888888889
2023-02-22T09:13:02.057Z,0.03888888888888889
2023-02-22T09:14:01.077Z,0
2023-02-22T09:15:01.170Z,0
2023-02-22T09:16:01.173Z,0
2023-02-22T09:17:03.984Z,0
2023-02-22T09:18:01.653Z,0
2023-02-22T09:19:01.673Z,0
2023-02-22T09:20:01.380Z,0.08055555555555555
2023-02-22T09:21:01.055Z,0.31666666666666665
2023-02-22T09:22:01.083Z,0.19999999999999998
2023-02-22T09:23:01.074Z,0.2777777777777778
2023-02-22T09:24:01.085Z,0
2023-02-22T09:25:11.197Z,0.15833333333333333
2023-02-22T09:26:01.533Z,0
2023-02-22T09:27:01.485Z,0
2023-02-22T09:28:01.107Z,0
2023-02-22T09:29:01.112Z,0.5166666666666667
2023-02-22T09:30:01.125Z,0.2777777777777778
2023-02-22T09:31:01.134Z,0.03888888888888889
2023-02-22T09:32:01.303Z,0
2023-02-22T09:33:01.351Z,0.11944444444444444
2023-02-22T09:34:03.949Z,0
2023-02-22T09:35:02.513Z,0.19999999999999998
2023-02-22T09:36:01.458Z,0
2023-02-22T09:37:02.089Z,0
2023-02-22T09:38:02.187Z,0.5166666666666667
2023-02-22T09:39:01.078Z,0.03888888888888889
2023-02-22T09:40:01.248Z,0.03888888888888889
2023-02-22T09:41:01.092Z,0
2023-02-22T09:42:01.105Z,0.4361111111111111
2023-02-22T09:43:01.109Z,0
2023-02-22T09:44:01.070Z,0.08055555555555555
2023-02-22T09:45:00.803Z,0
2023-02-22T09:46:00.643Z,0.34444444444444444
2023-02-22T09:47:00.308Z,0.23888888888888887
2023-02-22T09:48:05.278Z,0.47777777777777775
2023-02-22T09:49:02.990Z,0.39999999999999997
2023-02-22T09:50:01.169Z,0.5972222222222222
2023-02-22T09:51:01.318Z,0.08611111111111111
2023-02-22T09:52:01.081Z,0.2777777777777778
2023-02-22T09:53:01.065Z,0.11944444444444444
2023-02-22T09:54:01.085Z,0.15833333333333333
2023-02-22T09:55:01.178Z,0.3972222222222222
2023-02-22T09:56:02.374Z,0.18333333333333335
2023-02-22T09:57:01.740Z,0.11944444444444444
2023-02-22T09:58:03.149Z,0
2023-02-22T09:59:01.492Z,0.23888888888888887
2023-02-22T10:00:01.150Z,0.6361111111111111
2023-02-22T10:01:02.085Z,0.14722222222222223
2023-02-22T10:02:01.227Z,0.2777777777777778
2023-02-22T10:03:01.927Z,0
2023-02-22T10:04:01.397Z,0.31666666666666665
2023-02-22T10:05:00.655Z,0.2777777777777778
2023-02-22T10:06:03.403Z,0.1611111111111111
2023-02-22T10:07:01.159Z,0.19999999999999998
2023-02-22T10:08:01.170Z,0.47777777777777775
2023-02-22T10:09:01.059Z,0.15833333333333333
2023-02-22T10:10:01.080Z,0.5972222222222222
2023-02-22T10:11:05.197Z,0.44166666666666665
2023-02-22T10:12:01.879Z,0.19999999999999998
2023-02-22T10:13:01.911Z,0.18055555555555555
2023-02-22T10:14:04.159Z,0.19444444444444442
2023-02-22T10:15:01.049Z,0.23888888888888887
2023-02-22T10:16:09.212Z,0.19722222222222222
2023-02-22T10:17:01.919Z,0.31666666666666665
2023-02-22T10:18:01.156Z,0.3972222222222222
2023-02-22T10:19:01.136Z,0.31666666666666665
2023-02-22T10:20:01.374Z,0.11944444444444444
2023-02-22T10:21:12.372Z,0.18333333333333335
2023-02-22T10:22:01.150Z,0.7555555555555555
2023-02-22T10:23:01.163Z,1.0333333333333334
2023-02-22T10:24:01.157Z,0.47777777777777775
2023-02-22T10:25:00.857Z,0.5555555555555556
2023-02-22T10:26:14.651Z,0.2777777777777778
2023-02-22T10:27:01.074Z,0.35833333333333334
2023-02-22T10:28:01.061Z,0.6361111111111111
2023-02-22T10:29:01.459Z,0.5361111111111111
2023-02-22T10:30:05.595Z,0.5166666666666667
2023-02-22T10:31:01.396Z,0.3972222222222222
2023-02-22T10:32:01.244Z,0.675
2023-02-22T10:33:02.021Z,0.15833333333333333
2023-02-22T10:34:01.131Z,0.35833333333333334
2023-02-22T10:35:01.130Z,0.2777777777777778
2023-02-22T10:36:00.779Z,0.2777777777777778
2023-02-22T10:37:00.693Z,0.08055555555555555
2023-02-22T10:38:00.340Z,0
2023-02-22T10:39:00.015Z,0.35833333333333334
2023-02-22T10:39:59.722Z,0.47777777777777775
2023-02-22T10:41:01.356Z,0.23888888888888887
2023-02-22T10:42:02.603Z,0.4361111111111111
2023-02-22T10:43:01.982Z,0.5166666666666667
2023-02-22T10:44:01.791Z,0.5166666666666667
2023-02-22T10:45:00.670Z,0.5166666666666667
2023-02-22T10:46:00.475Z,0.5555555555555556
2023-02-22T10:47:00.064Z,0.3972222222222222
2023-02-22T10:47:59.651Z,0.9138888888888889
2023-02-22T10:49:01.312Z,0.19999999999999998
2023-02-22T10:50:01.122Z,0.19999999999999998
2023-02-22T10:51:01.131Z,0.31666666666666665
2023-02-22T10:52:01.486Z,0.03888888888888889
2023-02-22T10:53:01.140Z,0.08055555555555555
2023-02-22T10:54:01.135Z,0.08055555555555555
2023-02-22T10:55:14.168Z,0
2023-02-22T10:56:01.214Z,0.23888888888888887
2023-02-22T10:57:01.271Z,0.19999999999999998
2023-02-22T10:58:00.952Z,0.08055555555555555
2023-02-22T10:59:00.661Z,0.08055555555555555
2023-02-22T11:00:00.350Z,0.3972222222222222
2023-02-22T11:01:00.189Z,0.35833333333333334
2023-02-22T11:01:59.893Z,0.5555555555555556
2023-02-22T11:02:59.555Z,0.23888888888888887
2023-02-22T11:04:01.145Z,0.47777777777777775
2023-02-22T11:05:00.990Z,0.5972222222222222
2023-02-22T11:06:01.122Z,0.9138888888888889
2023-02-22T11:07:01.518Z,1.2277777777777776
2023-02-22T11:08:01.728Z,0.7138888888888888
2023-02-22T11:09:01.117Z,0.47777777777777775
2023-02-22T11:10:01.047Z,0.23888888888888887
2023-02-22T11:11:01.163Z,0.7555555555555555
2023-02-22T11:12:01.167Z,0.9527777777777778
2023-02-22T11:13:01.166Z,0.3972222222222222
2023-02-22T11:14:01.994Z,0.5555555555555556
2023-02-22T11:15:01.882Z,0.11944444444444444
2023-02-22T11:16:01.088Z,0.23888888888888887
2023-02-22T11:17:01.174Z,0.5555555555555556
2023-02-22T11:18:01.910Z,0.7555555555555555
2023-02-22T11:19:01.114Z,0.5972222222222222
2023-02-22T11:20:01.279Z,0
2023-02-22T11:21:01.062Z,0.08055555555555555
2023-02-22T11:22:01.500Z,0.25277777777777777
2023-02-22T11:23:00.847Z,0.11944444444444444
2023-02-22T11:24:01.165Z,0.2777777777777778
2023-02-22T11:25:00.639Z,0.4361111111111111
2023-02-22T11:26:00.335Z,0.03888888888888889
2023-02-22T11:27:00.654Z,0.2777777777777778
2023-02-22T11:28:01.725Z,0.19999999999999998
2023-02-22T11:29:01.265Z,0.19999999999999998
2023-02-22T11:30:01.588Z,0.21666666666666667
2023-02-22T11:31:02.756Z,0.19999999999999998
2023-02-22T11:32:01.133Z,0.24722222222222223
2023-02-22T11:33:01.101Z,0.2777777777777778
2023-02-22T11:34:01.437Z,0.5166666666666667
2023-02-22T11:35:09.060Z,0.23888888888888887
2023-02-22T11:36:02.271Z,0.47777777777777775
2023-02-22T11:37:01.115Z,0.3916666666666666
2023-02-22T11:38:01.506Z,0.2833333333333333
2023-02-22T11:39:01.145Z,0.8333333333333333
2023-02-22T11:40:01.130Z,0.6361111111111111
2023-02-22T11:41:01.047Z,0.19722222222222222
2023-02-22T11:42:01.137Z,0.09722222222222221
2023-02-22T11:43:01.140Z,0.23888888888888887
2023-02-22T11:44:01.141Z,0.19999999999999998
2023-02-22T11:45:01.508Z,0.15833333333333333
2023-02-22T11:46:02.317Z,0.5166666666666667
2023-02-22T11:47:02.052Z,0.36944444444444446
2023-02-22T11:48:01.964Z,0.35833333333333334
2023-02-22T11:49:01.088Z,0.19999999999999998
2023-02-22T11:50:01.120Z,0.19999999999999998
2023-02-22T11:51:01.125Z,0.2777777777777778
2023-02-22T11:52:05.486Z,0.14722222222222223
2023-02-22T11:53:01.925Z,0.21388888888888888
2023-02-22T11:54:01.786Z,0.23888888888888887
2023-02-22T11:55:01.124Z,0.19999999999999998
2023-02-22T11:56:01.497Z,0.31666666666666665
2023-02-22T11:57:10.149Z,0.09722222222222221
2023-02-22T11:58:02.572Z,0
2023-02-22T11:59:01.144Z,0.23888888888888887
2023-02-22T12:00:01.243Z,0.7944444444444444
2023-02-22T12:01:01.985Z,0.5166666666666667
2023-02-22T12:02:11.336Z,0.40555555555555556
2023-02-22T12:03:02.149Z,0.4361111111111111
2023-02-22T12:04:01.267Z,0.8333333333333333
2023-02-22T12:05:01.413Z,0.35833333333333334
2023-02-22T12:06:01.198Z,1.35
2023-02-22T12:07:14.306Z,0.8250000000000001
2023-02-22T12:08:13.794Z,0.875
2023-02-22T12:09:02.039Z,0.5555555555555556
2023-02-22T12:10:01.432Z,1.0722222222222222
2023-02-22T12:11:00.831Z,0.9944444444444445
2023-02-22T12:12:16.084Z,0.6361111111111111
2023-02-22T12:13:01.912Z,0.3972222222222222
2023-02-22T12:14:01.183Z,0.8333333333333333
2023-02-22T12:15:01.053Z,0.2777777777777778
2023-02-22T12:16:01.193Z,0.11944444444444444
2023-02-22T12:17:01.172Z,0.35833333333333334
2023-02-22T12:18:00.636Z,0.35833333333333334